createdAt,value
2018-11-05T00:01:40.358Z,11.30
2018-11-05T00:04:08.789Z,11.30
2018-11-05T00:06:37.190Z,11.20
2018-11-05T00:09:08.465Z,11.10
2018-11-05T00:11:37.014Z,11.10
2018-11-05T00:14:05.632Z,11.10
2018-11-05T00:16:34.027Z,11.10
2018-11-05T00:19:02.431Z,11.00
2018-11-05T00:21:30.906Z,11.00
2018-11-05T00:23:59.298Z,11.00
2018-11-05T00:26:27.897Z,10.90
2018-11-05T00:28:56.311Z,10.90
2018-11-05T00:31:24.929Z,10.90
2018-11-05T00:33:53.358Z,11.00
2018-11-05T00:36:21.769Z,10.90
2018-11-05T00:38:50.210Z,10.90
2018-11-05T00:41:18.607Z,10.90
2018-11-05T00:43:46.973Z,10.90
2018-11-05T00:46:15.465Z,10.80
2018-11-05T00:48:43.982Z,10.90
2018-11-05T00:51:12.478Z,10.80
2018-11-05T00:53:40.923Z,10.80
2018-11-05T00:56:09.369Z,10.80
2018-11-05T00:58:37.835Z,10.80
2018-11-05T01:01:06.732Z,10.70
2018-11-05T01:03:35.258Z,10.70
2018-11-05T01:06:03.655Z,10.70
2018-11-05T01:08:32.246Z,10.60
2018-11-05T01:11:00.827Z,10.60
2018-11-05T01:13:29.223Z,10.60
2018-11-05T01:15:57.629Z,10.50
2018-11-05T01:18:26.148Z,10.50
2018-11-05T01:20:54.726Z,10.50
2018-11-05T01:23:23.242Z,10.50
2018-11-05T01:25:51.702Z,10.50
2018-11-05T01:28:20.110Z,10.40
2018-11-05T01:30:48.590Z,10.40
2018-11-05T01:33:17.058Z,10.40
2018-11-05T01:35:45.451Z,10.40
2018-11-05T01:38:13.842Z,10.40
2018-11-05T01:40:42.360Z,10.40
2018-11-05T01:43:10.829Z,10.40
2018-11-05T01:45:39.201Z,10.40
2018-11-05T01:48:07.745Z,10.40
2018-11-05T01:50:36.209Z,10.40
2018-11-05T01:53:04.892Z,10.50
2018-11-05T01:55:33.415Z,10.50
2018-11-05T01:58:01.854Z,10.50
2018-11-05T02:00:30.375Z,10.40
2018-11-05T02:02:58.761Z,10.30
2018-11-05T02:05:27.267Z,10.30
2018-11-05T02:07:55.783Z,10.30
2018-11-05T02:10:24.249Z,10.20
2018-11-05T02:12:52.594Z,10.20
2018-11-05T02:15:20.966Z,10.20
2018-11-05T02:17:49.363Z,10.10
2018-11-05T02:20:17.995Z,10.10
2018-11-05T02:22:46.561Z,10.10
2018-11-05T02:25:15.271Z,10.10
2018-11-05T02:27:43.836Z,10.00
2018-11-05T02:30:15.697Z,10.00
2018-11-05T02:32:44.474Z,10.10
2018-11-05T02:35:13.984Z,10.10
2018-11-05T02:37:43.399Z,10.10
2018-11-05T02:40:20.538Z,10.00
2018-11-05T02:42:49.434Z,10.00
2018-11-05T02:45:18.633Z,10.00
2018-11-05T02:47:47.149Z,10.00
2018-11-05T02:50:16.045Z,10.00
2018-11-05T02:52:45.418Z,10.00
2018-11-05T02:55:13.961Z,9.90
2018-11-05T02:57:42.375Z,9.90
2018-11-05T03:00:14.758Z,9.90
2018-11-05T03:02:43.440Z,9.90
2018-11-05T03:05:13.637Z,9.90
2018-11-05T03:07:42.962Z,9.90
2018-11-05T03:10:12.032Z,9.80
2018-11-05T03:12:41.251Z,9.80
2018-11-05T03:15:11.565Z,9.90
2018-11-05T03:17:40.166Z,10.00
2018-11-05T03:20:10.090Z,10.00
2018-11-05T03:22:38.790Z,10.10
2018-11-05T03:25:07.451Z,10.10
2018-11-05T03:27:35.978Z,10.10
2018-11-05T03:30:04.950Z,10.10
2018-11-05T03:32:33.423Z,10.10
2018-11-05T03:35:01.806Z,10.00
2018-11-05T03:37:30.460Z,9.90
2018-11-05T03:39:58.911Z,9.80
2018-11-05T03:42:27.274Z,9.80
2018-11-05T03:44:55.674Z,9.70
2018-11-05T03:47:24.063Z,9.70
2018-11-05T03:49:52.555Z,9.70
2018-11-05T03:52:21.081Z,9.60
2018-11-05T03:54:49.575Z,9.60
2018-11-05T03:57:18.027Z,9.60
2018-11-05T03:59:46.430Z,9.60
2018-11-05T04:02:14.789Z,9.70
2018-11-05T04:04:43.767Z,9.70
2018-11-05T04:07:12.147Z,9.70
2018-11-05T04:09:40.538Z,9.70
2018-11-05T04:12:09.211Z,9.70
2018-11-05T04:14:37.618Z,9.60
2018-11-05T04:17:06.546Z,9.50
2018-11-05T04:19:34.981Z,9.50
2018-11-05T04:22:03.496Z,9.40
2018-11-05T04:24:31.938Z,9.40
2018-11-05T04:27:00.325Z,9.40
2018-11-05T04:29:28.772Z,9.30
2018-11-05T04:31:57.243Z,9.30
2018-11-05T04:34:25.702Z,9.30
2018-11-05T04:36:54.095Z,9.30
2018-11-05T04:39:22.539Z,9.30
2018-11-05T04:41:50.969Z,9.30
2018-11-05T04:44:19.546Z,9.30
2018-11-05T04:46:48.011Z,9.40
2018-11-05T04:49:16.558Z,9.40
2018-11-05T04:51:45.191Z,9.40
2018-11-05T04:54:13.594Z,9.30
2018-11-05T04:56:42.009Z,9.30
2018-11-05T04:59:10.396Z,9.20
2018-11-05T05:01:38.804Z,9.30
2018-11-05T05:04:07.186Z,9.30
2018-11-05T05:06:35.594Z,9.30
2018-11-05T05:09:05.952Z,9.30
2018-11-05T05:11:34.321Z,9.30
2018-11-05T05:14:02.892Z,9.40
2018-11-05T05:16:31.300Z,9.40
2018-11-05T05:18:59.791Z,9.40
2018-11-05T05:21:28.214Z,9.50
2018-11-05T05:23:56.663Z,9.50
2018-11-05T05:26:25.219Z,9.50
2018-11-05T05:28:53.625Z,9.60
2018-11-05T05:31:22.022Z,9.50
2018-11-05T05:33:50.459Z,9.60
2018-11-05T05:36:18.870Z,9.60
2018-11-05T05:38:47.423Z,9.60
2018-11-05T05:41:15.988Z,9.60
2018-11-05T05:43:44.481Z,9.70
2018-11-05T05:46:12.926Z,9.70
2018-11-05T05:48:41.408Z,9.70
2018-11-05T05:51:10.290Z,9.60
2018-11-05T05:53:38.730Z,9.70
2018-11-05T05:56:07.154Z,9.70
2018-11-05T05:58:35.513Z,9.70
2018-11-05T06:01:04.151Z,9.80
2018-11-05T06:03:32.687Z,9.80
2018-11-05T06:06:01.259Z,9.70
2018-11-05T06:08:29.650Z,9.70
2018-11-05T06:10:58.222Z,9.80
2018-11-05T06:13:26.632Z,9.80
2018-11-05T06:15:55.315Z,9.80
2018-11-05T06:18:23.669Z,9.80
2018-11-05T06:20:52.161Z,9.80
2018-11-05T06:23:20.682Z,9.80
2018-11-05T06:25:49.213Z,9.80
2018-11-05T06:28:17.579Z,9.80
2018-11-05T06:30:46.022Z,9.80
2018-11-05T06:33:14.570Z,9.80
2018-11-05T06:35:43.086Z,9.80
2018-11-05T06:38:11.551Z,9.80
2018-11-05T06:40:39.987Z,9.80
2018-11-05T06:43:08.470Z,9.80
2018-11-05T06:45:36.845Z,9.90
2018-11-05T06:48:05.384Z,9.90
2018-11-05T06:50:33.937Z,9.80
2018-11-05T06:53:02.531Z,9.80
2018-11-05T06:55:30.791Z,9.80
2018-11-05T06:57:59.270Z,9.80
2018-11-05T07:00:27.694Z,9.80
2018-11-05T07:02:56.074Z,9.80
2018-11-05T07:05:24.573Z,9.80
2018-11-05T07:07:53.274Z,9.80
2018-11-05T07:10:21.718Z,9.70
2018-11-05T07:12:50.281Z,9.80
2018-11-05T07:15:19.389Z,9.80
2018-11-05T07:17:48.803Z,9.80
2018-11-05T07:20:18.435Z,9.80
2018-11-05T07:22:47.682Z,9.80
2018-11-05T07:25:16.371Z,9.90
2018-11-05T07:27:45.119Z,9.80
2018-11-05T07:30:17.500Z,9.80
2018-11-05T07:32:46.609Z,9.80
2018-11-05T07:35:15.827Z,9.80
2018-11-05T07:37:45.246Z,9.80
2018-11-05T07:40:15.048Z,9.80
2018-11-05T07:42:43.511Z,9.80
2018-11-05T07:45:15.630Z,9.80
2018-11-05T07:47:44.853Z,9.80
2018-11-05T07:50:14.525Z,9.80
2018-11-05T07:52:42.925Z,9.80
2018-11-05T07:55:12.859Z,9.70
2018-11-05T07:57:42.546Z,9.70
2018-11-05T08:00:20.319Z,9.60
2018-11-05T08:02:50.059Z,9.70
2018-11-05T08:05:19.527Z,9.70
2018-11-05T08:07:48.366Z,9.70
2018-11-05T08:10:16.752Z,9.70
2018-11-05T08:12:45.267Z,9.70
2018-11-05T08:15:16.915Z,9.80
2018-11-05T08:17:46.378Z,9.80
2018-11-05T08:20:14.861Z,9.80
2018-11-05T08:22:43.238Z,9.80
2018-11-05T08:25:12.419Z,9.80
2018-11-05T08:27:40.907Z,9.90
2018-11-05T08:30:11.907Z,9.80
2018-11-05T08:32:40.273Z,9.80
2018-11-05T08:35:09.764Z,9.90
2018-11-05T08:37:38.262Z,9.80
2018-11-05T08:40:10.715Z,9.80
2018-11-05T08:42:39.386Z,9.80
2018-11-05T08:45:07.960Z,9.80
2018-11-05T08:47:36.369Z,9.90
2018-11-05T08:50:05.044Z,10.00
2018-11-05T08:52:33.574Z,10.00
2018-11-05T08:55:02.058Z,10.10
2018-11-05T08:57:30.475Z,10.10
2018-11-05T08:59:58.895Z,10.20
2018-11-05T09:02:27.436Z,10.20
2018-11-05T09:04:55.902Z,10.30
2018-11-05T09:07:24.283Z,10.20
2018-11-05T09:09:52.857Z,10.30
2018-11-05T09:12:21.149Z,10.30
2018-11-05T09:14:49.536Z,10.30
2018-11-05T09:17:17.942Z,10.30
2018-11-05T09:19:46.319Z,10.30
2018-11-05T09:22:14.885Z,10.30
2018-11-05T09:24:43.451Z,10.40
2018-11-05T09:27:11.863Z,10.40
2018-11-05T09:29:40.303Z,10.40
2018-11-05T09:32:08.758Z,10.40
2018-11-05T09:34:37.318Z,10.40
2018-11-05T09:37:05.728Z,10.40
2018-11-05T09:39:34.235Z,10.50
2018-11-05T09:42:02.654Z,10.50
2018-11-05T09:44:31.105Z,10.50
2018-11-05T09:46:59.577Z,10.60
2018-11-05T09:49:27.952Z,10.60
2018-11-05T09:51:56.374Z,10.70
2018-11-05T09:54:24.790Z,10.70
2018-11-05T09:56:53.252Z,10.70
2018-11-05T09:59:21.691Z,10.70
2018-11-05T10:01:50.145Z,10.80
2018-11-05T10:04:18.656Z,10.80
2018-11-05T10:06:46.954Z,10.80
2018-11-05T10:09:15.336Z,10.90
2018-11-05T10:11:43.719Z,10.90
2018-11-05T10:14:12.143Z,10.90
2018-11-05T10:16:40.713Z,10.80
2018-11-05T10:19:09.109Z,10.90
2018-11-05T10:21:37.579Z,10.90
2018-11-05T10:24:06.212Z,10.90
2018-11-05T10:26:34.642Z,10.90
2018-11-05T10:29:03.106Z,10.90
2018-11-05T10:31:31.643Z,11.00
2018-11-05T10:34:00.025Z,11.00
2018-11-05T10:36:28.503Z,11.00
2018-11-05T10:38:56.890Z,11.10
2018-11-05T10:41:25.342Z,11.10
2018-11-05T10:43:54.004Z,11.20
2018-11-05T10:46:22.718Z,11.20
2018-11-05T10:48:51.057Z,11.20
2018-11-05T10:51:19.628Z,11.30
2018-11-05T10:53:47.961Z,11.40
2018-11-05T10:56:16.407Z,11.60
2018-11-05T10:58:44.922Z,11.80
2018-11-05T11:01:15.658Z,12.00
2018-11-05T11:03:49.481Z,12.40
2018-11-05T11:06:17.878Z,12.80
2018-11-05T11:08:46.319Z,13.20
2018-11-05T11:11:14.703Z,13.60
2018-11-05T11:13:43.344Z,14.00
2018-11-05T11:16:11.889Z,14.30
2018-11-05T11:18:40.427Z,14.60
2018-11-05T11:21:08.902Z,14.90
2018-11-05T11:23:37.414Z,15.10
2018-11-05T11:26:06.236Z,15.20
2018-11-05T11:28:34.715Z,15.30
2018-11-05T11:31:03.146Z,15.30
2018-11-05T11:33:31.707Z,15.20
2018-11-05T11:36:00.096Z,15.20
2018-11-05T11:38:28.675Z,15.20
2018-11-05T11:40:57.178Z,15.10
2018-11-05T11:43:25.715Z,15.10
2018-11-05T11:45:54.261Z,15.10
2018-11-05T11:48:22.791Z,15.10
2018-11-05T11:50:51.227Z,15.10
2018-11-05T11:53:19.835Z,15.10
2018-11-05T11:55:48.341Z,15.10
2018-11-05T11:58:16.797Z,15.10
2018-11-05T12:00:45.248Z,15.20
2018-11-05T12:03:13.730Z,15.20
2018-11-05T12:05:42.108Z,15.30
2018-11-05T12:08:10.489Z,15.50
2018-11-05T12:10:38.905Z,15.50
2018-11-05T12:13:07.429Z,15.50
2018-11-05T12:15:35.939Z,15.50
2018-11-05T12:18:04.398Z,15.40
2018-11-05T12:20:32.807Z,15.40
2018-11-05T12:23:01.190Z,15.40
2018-11-05T12:25:29.681Z,15.30
2018-11-05T12:27:58.111Z,15.30
2018-11-05T12:30:26.540Z,15.40
2018-11-05T12:32:55.111Z,15.50
2018-11-05T12:35:23.508Z,15.60
2018-11-05T12:37:52.907Z,15.70
2018-11-05T12:40:22.218Z,16.00
2018-11-05T12:42:51.277Z,16.30
2018-11-05T12:45:19.762Z,16.60
2018-11-05T12:47:48.240Z,16.80
2018-11-05T12:50:21.010Z,17.00
2018-11-05T12:52:50.437Z,17.00
2018-11-05T12:55:19.041Z,17.00
2018-11-05T12:57:47.816Z,16.90
2018-11-05T13:00:18.426Z,16.90
2018-11-05T13:02:52.734Z,16.80
2018-11-05T13:05:21.529Z,16.80
2018-11-05T13:07:50.018Z,17.00
2018-11-05T13:10:18.554Z,17.20
2018-11-05T13:12:47.032Z,17.50
2018-11-05T13:15:15.766Z,17.80
2018-11-05T13:17:44.178Z,18.10
2018-11-05T13:20:19.738Z,18.30
2018-11-05T13:22:48.570Z,18.50
2018-11-05T13:25:17.017Z,18.60
2018-11-05T13:27:46.887Z,18.70
2018-11-05T13:30:15.686Z,18.80
2018-11-05T13:32:44.457Z,19.00
2018-11-05T13:35:14.255Z,19.10
2018-11-05T13:37:43.177Z,19.20
2018-11-05T13:40:13.826Z,19.30
2018-11-05T13:42:42.474Z,19.40
2018-11-05T13:45:11.965Z,19.40
2018-11-05T13:47:41.267Z,19.50
2018-11-05T13:50:10.296Z,19.50
2018-11-05T13:52:38.825Z,19.60
2018-11-05T13:55:08.635Z,19.60
2018-11-05T13:57:37.231Z,19.60
2018-11-05T14:00:07.762Z,19.50
2018-11-05T14:02:36.183Z,19.40
2018-11-05T14:05:04.893Z,19.30
2018-11-05T14:07:34.014Z,19.20
2018-11-05T14:10:02.444Z,19.00
2018-11-05T14:12:30.946Z,18.90
2018-11-05T14:14:59.263Z,18.80
2018-11-05T14:17:27.767Z,18.70
2018-11-05T14:19:56.278Z,18.50
2018-11-05T14:22:24.914Z,18.40
2018-11-05T14:24:53.352Z,18.30
2018-11-05T14:27:21.941Z,18.20
2018-11-05T14:29:50.714Z,18.00
2018-11-05T14:32:18.891Z,17.90
2018-11-05T14:34:47.538Z,17.80
2018-11-05T14:37:16.116Z,17.70
2018-11-05T14:39:44.525Z,17.60
2018-11-05T14:42:12.946Z,17.50
2018-11-05T14:44:41.423Z,17.40
2018-11-05T14:47:10.006Z,17.40
2018-11-05T14:49:38.478Z,17.30
2018-11-05T14:52:06.929Z,17.20
2018-11-05T14:54:35.571Z,17.20
2018-11-05T14:57:03.990Z,17.10
2018-11-05T14:59:32.443Z,17.10
2018-11-05T15:02:06.339Z,17.00
2018-11-05T15:04:34.818Z,17.00
2018-11-05T15:07:03.537Z,16.90
2018-11-05T15:09:32.025Z,16.90
2018-11-05T15:12:00.608Z,16.80
2018-11-05T15:14:29.025Z,16.80
2018-11-05T15:16:57.606Z,16.80
2018-11-05T15:19:26.887Z,16.70
2018-11-05T15:21:54.979Z,16.70
2018-11-05T15:24:23.395Z,16.60
2018-11-05T15:26:52.070Z,16.60
2018-11-05T15:29:20.404Z,16.50
2018-11-05T15:31:48.969Z,16.50
2018-11-05T15:34:17.387Z,16.40
2018-11-05T15:36:45.874Z,16.30
2018-11-05T15:39:14.305Z,16.20
2018-11-05T15:41:42.707Z,16.20
2018-11-05T15:44:11.162Z,16.20
2018-11-05T15:46:39.905Z,16.10
2018-11-05T15:49:08.278Z,16.00
2018-11-05T15:51:37.048Z,16.00
2018-11-05T15:54:05.811Z,15.90
2018-11-05T15:56:34.312Z,15.80
2018-11-05T15:59:02.728Z,15.60
2018-11-05T16:01:31.331Z,15.40
2018-11-05T16:03:59.819Z,15.30
2018-11-05T16:06:28.296Z,15.30
2018-11-05T16:08:56.839Z,15.30
2018-11-05T16:11:25.388Z,15.20
2018-11-05T16:13:53.954Z,15.10
2018-11-05T16:16:22.436Z,15.10
2018-11-05T16:18:50.984Z,15.00
2018-11-05T16:21:19.415Z,14.90
2018-11-05T16:23:48.031Z,14.80
2018-11-05T16:26:16.480Z,14.80
2018-11-05T16:28:45.019Z,14.70
2018-11-05T16:31:13.536Z,14.60
2018-11-05T16:33:42.145Z,14.50
2018-11-05T16:36:10.840Z,14.40
2018-11-05T16:38:39.427Z,14.40
2018-11-05T16:41:08.000Z,14.30
2018-11-05T16:43:36.485Z,14.30
2018-11-05T16:46:05.950Z,14.30
2018-11-05T16:48:34.490Z,14.30
2018-11-05T16:51:02.980Z,14.20
2018-11-05T16:53:31.580Z,14.10
2018-11-05T16:56:00.111Z,14.10
2018-11-05T16:58:28.662Z,14.10
2018-11-05T17:00:57.279Z,14.10
2018-11-05T17:03:25.543Z,14.10
2018-11-05T17:05:54.178Z,14.20
2018-11-05T17:08:22.567Z,14.10
2018-11-05T17:10:51.086Z,14.00
2018-11-05T17:13:19.697Z,13.90
2018-11-05T17:15:48.074Z,13.80
2018-11-05T17:18:16.456Z,13.70
2018-11-05T17:20:44.941Z,13.60
2018-11-05T17:23:13.398Z,13.60
2018-11-05T17:25:42.090Z,13.50
2018-11-05T17:28:10.593Z,13.40
2018-11-05T17:30:39.030Z,13.40
2018-11-05T17:33:07.629Z,13.30
2018-11-05T17:35:36.010Z,13.40
2018-11-05T17:38:04.481Z,13.40
2018-11-05T17:40:33.216Z,13.40
2018-11-05T17:43:01.697Z,13.30
2018-11-05T17:45:30.200Z,13.20
2018-11-05T17:47:58.787Z,13.20
2018-11-05T17:50:27.272Z,13.30
2018-11-05T17:52:55.831Z,13.50
2018-11-05T17:55:24.284Z,13.50
2018-11-05T17:57:52.829Z,13.40
2018-11-05T18:00:22.670Z,13.20
2018-11-05T18:02:51.364Z,13.10
2018-11-05T18:05:20.124Z,13.10
2018-11-05T18:07:48.709Z,13.20
2018-11-05T18:10:17.585Z,13.20
2018-11-05T18:12:46.386Z,13.10
2018-11-05T18:15:14.811Z,13.00
2018-11-05T18:17:44.532Z,12.90
2018-11-05T18:20:13.992Z,12.80
2018-11-05T18:22:42.646Z,12.80
2018-11-05T18:25:12.788Z,12.90
2018-11-05T18:27:41.347Z,13.10
2018-11-05T18:30:10.505Z,13.10
2018-11-05T18:32:39.037Z,13.00
2018-11-05T18:35:09.259Z,12.90
2018-11-05T18:37:37.796Z,12.70
2018-11-05T18:40:10.122Z,12.70
2018-11-05T18:42:39.169Z,12.60
2018-11-05T18:45:08.393Z,12.60
2018-11-05T18:47:36.974Z,12.50
2018-11-05T18:50:07.900Z,12.50
2018-11-05T18:52:36.723Z,12.40
2018-11-05T18:55:06.916Z,12.40
2018-11-05T18:57:35.792Z,12.40
2018-11-05T19:00:05.662Z,12.40
2018-11-05T19:02:35.217Z,12.50
2018-11-05T19:05:04.134Z,12.60
2018-11-05T19:07:32.996Z,12.80
2018-11-05T19:10:01.670Z,12.80
2018-11-05T19:12:30.141Z,12.90
2018-11-05T19:14:58.801Z,12.80
2018-11-05T19:17:27.467Z,12.70
2018-11-05T19:19:56.269Z,12.50
2018-11-05T19:22:24.810Z,12.40
2018-11-05T19:24:53.329Z,12.30
2018-11-05T19:27:22.668Z,12.20
2018-11-05T19:29:51.211Z,12.10
2018-11-05T19:32:19.779Z,12.00
2018-11-05T19:34:51.195Z,12.00
2018-11-05T19:37:19.650Z,12.00
2018-11-05T19:39:48.116Z,11.90
2018-11-05T19:42:16.657Z,11.90
2018-11-05T19:44:45.069Z,11.90
2018-11-05T19:47:13.670Z,11.80
2018-11-05T19:49:42.092Z,11.80
2018-11-05T19:52:10.639Z,11.80
2018-11-05T19:54:39.233Z,11.80
2018-11-05T19:57:07.814Z,11.70
2018-11-05T19:59:36.330Z,11.70
2018-11-05T20:02:05.791Z,11.60
2018-11-05T20:04:34.334Z,11.60
2018-11-05T20:07:03.620Z,11.60
2018-11-05T20:09:32.130Z,11.60
2018-11-05T20:12:00.742Z,11.50
2018-11-05T20:14:29.238Z,11.50
2018-11-05T20:16:58.035Z,11.40
2018-11-05T20:19:26.701Z,11.40
2018-11-05T20:21:55.239Z,11.40
2018-11-05T20:24:23.796Z,11.40
2018-11-05T20:26:52.230Z,11.30
2018-11-05T20:29:20.756Z,11.30
2018-11-05T20:31:49.609Z,11.30
2018-11-05T20:34:18.221Z,11.40
2018-11-05T20:36:46.700Z,11.50
2018-11-05T20:39:15.301Z,11.70
2018-11-05T20:41:43.894Z,11.70
2018-11-05T20:44:12.375Z,11.50
2018-11-05T20:46:41.159Z,11.50
2018-11-05T20:49:09.516Z,11.40
2018-11-05T20:51:38.268Z,11.30
2018-11-05T20:54:06.955Z,11.30
2018-11-05T20:56:35.572Z,11.20
2018-11-05T20:59:04.166Z,11.20
2018-11-05T21:01:32.723Z,11.20
2018-11-05T21:04:01.197Z,11.20
2018-11-05T21:06:29.795Z,11.10
2018-11-05T21:08:58.383Z,11.10
2018-11-05T21:11:27.004Z,11.10
2018-11-05T21:13:55.461Z,11.10
2018-11-05T21:16:23.914Z,11.00
2018-11-05T21:18:52.422Z,11.00
2018-11-05T21:21:21.060Z,10.90
2018-11-05T21:23:49.664Z,10.90
2018-11-05T21:26:19.047Z,10.90
2018-11-05T21:28:47.498Z,10.90
2018-11-05T21:31:16.020Z,10.80
2018-11-05T21:33:44.469Z,10.80
2018-11-05T21:36:13.000Z,10.80
2018-11-05T21:38:41.438Z,10.80
2018-11-05T21:41:09.911Z,10.80
2018-11-05T21:43:38.591Z,10.70
2018-11-05T21:46:07.186Z,10.70
2018-11-05T21:48:35.685Z,10.70
2018-11-05T21:51:04.307Z,10.70
2018-11-05T21:53:32.939Z,10.70
2018-11-05T21:56:01.518Z,10.70
2018-11-05T21:58:29.950Z,10.60
2018-11-05T22:00:58.406Z,10.60
2018-11-05T22:03:26.957Z,10.60
2018-11-05T22:05:55.563Z,10.50
2018-11-05T22:08:24.036Z,10.50
2018-11-05T22:10:52.485Z,10.50
2018-11-05T22:13:20.993Z,10.50
2018-11-05T22:15:49.415Z,10.50
2018-11-05T22:18:18.449Z,10.50
2018-11-05T22:20:47.038Z,10.50
2018-11-05T22:23:15.678Z,10.40
2018-11-05T22:25:44.205Z,10.40
2018-11-05T22:28:12.655Z,10.30
2018-11-05T22:30:41.227Z,10.30
2018-11-05T22:33:09.615Z,10.30
2018-11-05T22:35:37.638Z,10.30
2018-11-05T22:38:05.910Z,10.30
2018-11-05T22:40:33.574Z,10.20
2018-11-05T22:43:01.251Z,10.10
2018-11-05T22:45:28.936Z,10.20
2018-11-05T22:47:56.765Z,10.10
2018-11-05T22:50:24.504Z,10.10
2018-11-05T22:52:52.130Z,10.00
2018-11-05T22:55:19.797Z,10.00
2018-11-05T22:57:47.494Z,9.90
2018-11-05T23:00:22.315Z,9.80
2018-11-05T23:02:55.614Z,9.80
2018-11-05T23:05:23.525Z,9.70
2018-11-05T23:07:52.430Z,9.70
2018-11-05T23:10:20.277Z,9.70
2018-11-05T23:12:47.943Z,9.70
2018-11-05T23:15:15.763Z,9.60
2018-11-05T23:17:43.541Z,9.60
2018-11-05T23:20:11.553Z,9.50
2018-11-05T23:22:40.031Z,9.50
2018-11-05T23:25:07.727Z,9.60
2018-11-05T23:27:35.654Z,9.60
2018-11-05T23:30:03.496Z,9.60
2018-11-05T23:32:31.199Z,9.50
2018-11-05T23:34:58.830Z,9.50
2018-11-05T23:37:26.610Z,9.40
2018-11-05T23:39:54.315Z,9.40
2018-11-05T23:42:22.000Z,9.40
2018-11-05T23:44:49.746Z,9.30
2018-11-05T23:47:17.513Z,9.30
2018-11-05T23:49:45.163Z,9.30
2018-11-05T23:52:12.920Z,9.30
2018-11-05T23:54:40.504Z,9.40
2018-11-05T23:57:08.131Z,9.40
2018-11-05T23:59:35.772Z,9.30
